createdAt,value
2018-11-14T00:01:35.820Z,8.57
2018-11-14T00:04:03.120Z,8.58
2018-11-14T00:06:30.540Z,8.47
2018-11-14T00:08:57.762Z,8.43
2018-11-14T00:11:24.833Z,8.43
2018-11-14T00:13:51.923Z,8.41
2018-11-14T00:16:19.244Z,8.44
2018-11-14T00:18:46.308Z,8.42
2018-11-14T00:21:13.513Z,8.37
2018-11-14T00:23:40.624Z,8.38
2018-11-14T00:26:07.776Z,8.39
2018-11-14T00:28:35.055Z,8.15
2018-11-14T00:31:01.992Z,8.36
2018-11-14T00:33:29.097Z,8.33
2018-11-14T00:35:56.338Z,8.32
2018-11-14T00:38:23.796Z,8.32
2018-11-14T00:40:50.908Z,8.32
2018-11-14T00:43:18.065Z,8.29
2018-11-14T00:45:45.211Z,8.29
2018-11-14T00:48:12.456Z,8.27
2018-11-14T00:50:39.972Z,8.27
2018-11-14T00:53:07.035Z,8.21
2018-11-14T00:55:34.103Z,8.21
2018-11-14T00:58:01.312Z,8.19
2018-11-14T01:00:28.492Z,8.14
2018-11-14T01:02:55.568Z,8.12
2018-11-14T01:05:22.871Z,8.11
2018-11-14T01:07:50.016Z,8.09
2018-11-14T01:10:18.463Z,8.06
2018-11-14T01:12:46.436Z,8.05
2018-11-14T01:15:15.901Z,8.05
2018-11-14T01:17:43.190Z,8.04
2018-11-14T01:20:12.305Z,8.05
2018-11-14T01:22:40.078Z,8.09
2018-11-14T01:25:08.328Z,8.05
2018-11-14T01:27:35.399Z,8.07
2018-11-14T01:30:02.836Z,8.11
2018-11-14T01:32:30.059Z,8.10
2018-11-14T01:34:57.130Z,8.06
2018-11-14T01:37:24.208Z,8.06
2018-11-14T01:39:51.281Z,8.10
2018-11-14T01:42:18.348Z,8.09
2018-11-14T01:44:45.460Z,8.10
2018-11-14T01:47:12.516Z,8.10
2018-11-14T01:49:39.584Z,8.12
2018-11-14T01:52:06.685Z,8.06
2018-11-14T01:54:33.832Z,8.09
2018-11-14T01:57:01.016Z,8.07
2018-11-14T01:59:28.088Z,8.05
2018-11-14T02:01:55.156Z,8.06
2018-11-14T02:04:22.268Z,8.05
2018-11-14T02:06:49.411Z,8.06
2018-11-14T02:09:16.549Z,8.02
2018-11-14T02:11:44.096Z,8.01
2018-11-14T02:14:11.241Z,7.98
2018-11-14T02:16:38.317Z,7.99
2018-11-14T02:19:05.725Z,7.97
2018-11-14T02:21:32.789Z,7.98
2018-11-14T02:23:59.943Z,7.96
2018-11-14T02:26:27.107Z,7.99
2018-11-14T02:28:54.192Z,7.92
2018-11-14T02:31:21.408Z,7.91
2018-11-14T02:33:48.719Z,7.88
2018-11-14T02:36:15.824Z,7.86
2018-11-14T02:38:42.891Z,7.85
2018-11-14T02:41:09.965Z,7.84
2018-11-14T02:43:37.044Z,7.83
2018-11-14T02:46:04.540Z,7.79
2018-11-14T02:48:31.597Z,7.79
2018-11-14T02:51:10.260Z,7.77
2018-11-14T02:53:37.316Z,7.73
2018-11-14T02:56:07.167Z,7.60
2018-11-14T02:58:34.655Z,7.60
2018-11-14T03:01:01.824Z,7.56
2018-11-14T03:03:28.891Z,7.54
2018-11-14T03:05:56.147Z,7.49
2018-11-14T03:08:23.297Z,7.48
2018-11-14T03:10:50.455Z,7.49
2018-11-14T03:13:17.860Z,7.47
2018-11-14T03:15:44.964Z,7.47
2018-11-14T03:18:12.035Z,7.41
2018-11-14T03:20:39.408Z,7.42
2018-11-14T03:23:06.581Z,7.43
2018-11-14T03:25:33.645Z,7.42
2018-11-14T03:28:01.076Z,7.39
2018-11-14T03:30:28.148Z,7.38
2018-11-14T03:32:55.362Z,7.38
2018-11-14T03:35:22.488Z,7.38
2018-11-14T03:37:50.008Z,7.39
2018-11-14T03:40:17.147Z,7.35
2018-11-14T03:42:44.364Z,7.39
2018-11-14T03:45:12.555Z,7.36
2018-11-14T03:47:39.891Z,7.34
2018-11-14T03:50:07.437Z,7.35
2018-11-14T03:52:34.817Z,7.34
2018-11-14T03:55:01.908Z,7.31
2018-11-14T03:57:28.983Z,7.36
2018-11-14T03:59:56.124Z,7.34
2018-11-14T04:02:23.208Z,7.29
2018-11-14T04:04:50.313Z,7.33
2018-11-14T04:07:17.551Z,7.35
2018-11-14T04:09:44.631Z,7.35
2018-11-14T04:12:11.962Z,7.32
2018-11-14T04:14:39.228Z,7.30
2018-11-14T04:17:06.291Z,7.31
2018-11-14T04:19:33.357Z,7.34
2018-11-14T04:22:00.723Z,7.31
2018-11-14T04:24:27.785Z,7.29
2018-11-14T04:26:54.869Z,7.26
2018-11-14T04:29:22.260Z,7.30
2018-11-14T04:31:49.415Z,7.29
2018-11-14T04:34:16.556Z,7.30
2018-11-14T04:36:43.661Z,7.31
2018-11-14T04:39:11.274Z,7.28
2018-11-14T04:41:38.415Z,7.29
2018-11-14T04:44:05.959Z,7.30
2018-11-14T04:46:33.055Z,7.29
2018-11-14T04:49:00.113Z,7.29
2018-11-14T04:51:27.183Z,7.31
2018-11-14T04:53:54.352Z,7.28
2018-11-14T04:56:21.431Z,7.29
2018-11-14T04:58:48.568Z,7.33
2018-11-14T05:01:15.738Z,7.36
2018-11-14T05:03:42.844Z,7.39
2018-11-14T05:06:09.920Z,7.39
2018-11-14T05:08:37.268Z,7.42
2018-11-14T05:11:04.720Z,7.40
2018-11-14T05:13:31.804Z,7.38
2018-11-14T05:15:59.017Z,7.37
2018-11-14T05:18:26.163Z,7.36
2018-11-14T05:20:53.239Z,7.34
2018-11-14T05:23:20.572Z,7.37
2018-11-14T05:25:47.715Z,7.36
2018-11-14T05:28:14.951Z,7.40
2018-11-14T05:30:42.139Z,7.43
2018-11-14T05:33:09.288Z,7.40
2018-11-14T05:35:36.462Z,7.43
2018-11-14T05:38:03.586Z,7.45
2018-11-14T05:40:30.776Z,7.43
2018-11-14T05:42:57.847Z,7.46
2018-11-14T05:45:26.103Z,7.47
2018-11-14T05:47:53.386Z,7.44
2018-11-14T05:50:21.244Z,7.44
2018-11-14T05:52:48.514Z,7.44
2018-11-14T05:55:15.968Z,7.45
2018-11-14T05:57:43.202Z,7.40
2018-11-14T06:00:17.668Z,7.42
2018-11-14T06:02:45.617Z,7.39
2018-11-14T06:05:12.765Z,7.41
2018-11-14T06:07:39.980Z,7.38
2018-11-14T06:10:08.698Z,7.34
2018-11-14T06:12:35.879Z,7.36
2018-11-14T06:15:03.280Z,7.37
2018-11-14T06:17:30.379Z,7.34
2018-11-14T06:19:57.528Z,7.74
2018-11-14T06:22:24.624Z,7.48
2018-11-14T06:24:51.684Z,7.56
2018-11-14T06:27:18.749Z,7.71
2018-11-14T06:29:46.330Z,7.61
2018-11-14T06:32:13.412Z,7.60
2018-11-14T06:34:40.548Z,7.94
2018-11-14T06:37:07.969Z,7.67
2018-11-14T06:39:35.047Z,7.72
2018-11-14T06:42:02.296Z,8.15
2018-11-14T06:44:29.656Z,8.15
2018-11-14T06:46:56.728Z,7.95
2018-11-14T06:49:24.017Z,7.78
2018-11-14T06:51:51.180Z,7.73
2018-11-14T06:54:18.243Z,7.72
2018-11-14T06:56:45.331Z,7.59
2018-11-14T06:59:12.457Z,7.66
2018-11-14T07:01:39.617Z,7.78
2018-11-14T07:04:06.777Z,7.76
2018-11-14T07:06:33.933Z,8.76
2018-11-14T07:09:01.281Z,8.79
2018-11-14T07:11:28.380Z,8.90
2018-11-14T07:13:55.536Z,9.08
2018-11-14T07:16:22.775Z,8.36
2018-11-14T07:18:49.936Z,8.51
2018-11-14T07:21:17.348Z,8.57
2018-11-14T07:23:44.452Z,8.91
2018-11-14T07:26:11.521Z,8.73
2018-11-14T07:28:38.696Z,8.83
2018-11-14T07:31:12.827Z,9.11
2018-11-14T07:33:40.005Z,8.94
2018-11-14T07:36:07.088Z,8.80
2018-11-14T07:38:45.312Z,8.73
2018-11-14T07:41:14.732Z,8.72
2018-11-14T07:43:42.324Z,8.86
2018-11-14T07:46:10.133Z,8.88
2018-11-14T07:48:37.668Z,8.74
2018-11-14T07:51:05.099Z,8.58
2018-11-14T07:53:32.809Z,8.23
2018-11-14T07:55:59.907Z,8.17
2018-11-14T07:58:27.079Z,8.16
2018-11-14T08:00:54.669Z,8.22
2018-11-14T08:03:21.895Z,8.54
2018-11-14T08:05:49.044Z,8.19
2018-11-14T08:08:16.625Z,8.23
2018-11-14T08:10:43.695Z,8.67
2018-11-14T08:13:10.842Z,8.32
2018-11-14T08:15:38.463Z,8.04
2018-11-14T08:18:05.811Z,7.93
2018-11-14T08:20:32.915Z,7.93
2018-11-14T08:23:00.528Z,7.97
2018-11-14T08:25:27.876Z,7.88
2018-11-14T08:27:54.963Z,7.99
2018-11-14T08:30:22.100Z,7.97
2018-11-14T08:32:49.147Z,7.92
2018-11-14T08:35:16.315Z,7.86
2018-11-14T08:37:43.599Z,8.06
2018-11-14T08:40:10.662Z,7.89
2018-11-14T08:42:38.415Z,7.93
2018-11-14T08:45:07.523Z,7.91
2018-11-14T08:47:34.970Z,7.95
2018-11-14T08:50:02.191Z,7.97
2018-11-14T08:52:29.267Z,8.05
2018-11-14T08:54:56.332Z,7.91
2018-11-14T08:57:23.675Z,7.91
2018-11-14T08:59:50.753Z,7.99
2018-11-14T09:02:17.825Z,7.95
2018-11-14T09:04:45.005Z,8.03
2018-11-14T09:07:12.176Z,7.96
2018-11-14T09:09:39.254Z,8.00
2018-11-14T09:12:07.003Z,8.03
2018-11-14T09:14:35.597Z,8.04
2018-11-14T09:17:02.727Z,8.10
2018-11-14T09:19:29.867Z,8.15
2018-11-14T09:21:57.236Z,8.14
2018-11-14T09:24:26.371Z,8.21
2018-11-14T09:26:53.751Z,8.27
2018-11-14T09:29:20.855Z,8.30
2018-11-14T09:31:47.985Z,8.26
2018-11-14T09:34:22.403Z,8.22
2018-11-14T09:36:50.320Z,8.22
2018-11-14T09:39:17.429Z,8.29
2018-11-14T09:41:51.888Z,8.27
2018-11-14T09:44:19.159Z,8.32
2018-11-14T09:46:46.955Z,8.30
2018-11-14T09:49:14.131Z,8.34
2018-11-14T09:51:41.193Z,8.40
2018-11-14T09:54:08.712Z,8.44
2018-11-14T09:56:36.193Z,8.60
2018-11-14T09:59:03.256Z,8.51
2018-11-14T10:01:30.339Z,8.56
2018-11-14T10:03:57.439Z,9.93
2018-11-14T10:06:24.873Z,9.56
2018-11-14T10:08:52.014Z,9.31
2018-11-14T10:11:19.064Z,8.84
2018-11-14T10:13:46.526Z,9.92
2018-11-14T10:16:13.604Z,9.28
2018-11-14T10:18:40.672Z,9.17
2018-11-14T10:21:07.798Z,9.46
2018-11-14T10:23:34.829Z,9.13
2018-11-14T10:26:02.275Z,9.04
2018-11-14T10:28:29.368Z,9.22
2018-11-14T10:30:57.206Z,9.11
2018-11-14T10:33:24.435Z,9.02
2018-11-14T10:35:51.541Z,8.93
2018-11-14T10:38:18.610Z,8.80
2018-11-14T10:40:45.723Z,8.90
2018-11-14T10:43:12.991Z,8.95
2018-11-14T10:45:40.063Z,8.94
2018-11-14T10:48:07.243Z,8.86
2018-11-14T10:50:34.400Z,8.88
2018-11-14T10:53:01.540Z,8.95
2018-11-14T10:55:29.311Z,9.01
2018-11-14T10:57:56.464Z,8.97
2018-11-14T11:00:30.293Z,8.87
2018-11-14T11:03:04.419Z,8.97
2018-11-14T11:05:38.520Z,8.94
2018-11-14T11:08:12.487Z,9.06
2018-11-14T11:10:46.905Z,9.12
2018-11-14T11:13:20.617Z,9.22
2018-11-14T11:15:55.061Z,9.22
2018-11-14T11:18:26.595Z,9.26
2018-11-14T11:20:55.126Z,9.28
2018-11-14T11:23:23.905Z,9.29
2018-11-14T11:25:52.594Z,9.42
2018-11-14T11:28:22.087Z,9.64
2018-11-14T11:30:49.494Z,10.65
2018-11-14T11:33:16.567Z,10.83
2018-11-14T11:35:43.671Z,10.32
2018-11-14T11:38:10.881Z,10.14
2018-11-14T11:40:38.012Z,10.13
2018-11-14T11:43:05.550Z,9.94
2018-11-14T11:45:33.501Z,10.00
2018-11-14T11:48:00.851Z,9.83
2018-11-14T11:50:28.107Z,10.29
2018-11-14T11:52:55.268Z,9.96
2018-11-14T11:55:22.419Z,10.06
2018-11-14T11:57:49.531Z,10.53
2018-11-14T12:00:16.704Z,10.87
2018-11-14T12:02:43.869Z,10.30
2018-11-14T12:05:12.123Z,9.98
2018-11-14T12:07:39.376Z,10.16
2018-11-14T12:10:07.218Z,10.78
2018-11-14T12:12:34.300Z,10.36
2018-11-14T12:15:01.485Z,10.59
2018-11-14T12:17:28.609Z,10.16
2018-11-14T12:19:56.867Z,9.96
2018-11-14T12:22:24.059Z,10.06
2018-11-14T12:24:51.160Z,10.08
2018-11-14T12:27:18.377Z,10.13
2018-11-14T12:29:45.522Z,10.14
2018-11-14T12:32:12.924Z,10.11
2018-11-14T12:34:40.659Z,10.11
2018-11-14T12:37:07.833Z,10.10
2018-11-14T12:39:35.115Z,10.03
2018-11-14T12:42:02.274Z,10.01
2018-11-14T12:44:29.351Z,10.05
2018-11-14T12:46:56.512Z,10.04
2018-11-14T12:49:23.604Z,10.00
2018-11-14T12:51:50.744Z,10.02
2018-11-14T12:54:17.873Z,10.01
2018-11-14T12:56:44.952Z,10.11
2018-11-14T12:59:12.603Z,10.06
2018-11-14T13:01:39.762Z,10.03
2018-11-14T13:04:06.844Z,10.07
2018-11-14T13:06:33.951Z,10.16
2018-11-14T13:09:01.019Z,10.23
2018-11-14T13:11:28.090Z,10.28
2018-11-14T13:13:55.172Z,10.63
2018-11-14T13:16:22.275Z,10.55
2018-11-14T13:18:49.361Z,10.44
2018-11-14T13:21:16.607Z,10.39
2018-11-14T13:23:43.666Z,10.31
2018-11-14T13:26:10.779Z,10.30
2018-11-14T13:28:38.356Z,10.24
2018-11-14T13:31:05.567Z,10.22
2018-11-14T13:33:32.647Z,10.29
2018-11-14T13:35:59.743Z,10.27
2018-11-14T13:38:27.164Z,10.27
2018-11-14T13:40:54.295Z,10.46
2018-11-14T13:43:21.675Z,10.38
2018-11-14T13:45:48.730Z,10.38
2018-11-14T13:48:15.916Z,10.64
2018-11-14T13:50:43.392Z,10.69
2018-11-14T13:53:10.247Z,10.58
2018-11-14T13:55:37.363Z,10.88
2018-11-14T13:58:05.212Z,10.71
2018-11-14T14:00:32.307Z,10.73
2018-11-14T14:02:59.364Z,10.74
2018-11-14T14:05:26.977Z,10.89
2018-11-14T14:07:54.040Z,11.05
2018-11-14T14:10:21.262Z,11.06
2018-11-14T14:12:50.073Z,11.14
2018-11-14T14:15:19.556Z,11.09
2018-11-14T14:17:47.329Z,10.93
2018-11-14T14:20:15.301Z,10.90
2018-11-14T14:22:42.640Z,11.18
2018-11-14T14:25:11.635Z,11.15
2018-11-14T14:27:38.848Z,11.25
2018-11-14T14:30:08.127Z,10.99
2018-11-14T14:32:35.848Z,11.00
2018-11-14T14:35:03.060Z,11.10
2018-11-14T14:37:30.479Z,11.35
2018-11-14T14:39:57.555Z,11.32
2018-11-14T14:42:24.724Z,11.37
2018-11-14T14:44:52.011Z,11.38
2018-11-14T14:47:19.266Z,10.99
2018-11-14T14:49:46.428Z,10.90
2018-11-14T14:52:13.529Z,11.11
2018-11-14T14:54:40.834Z,10.93
2018-11-14T14:57:08.019Z,10.75
2018-11-14T14:59:35.242Z,10.76
2018-11-14T15:02:02.355Z,10.64
2018-11-14T15:04:29.809Z,10.58
2018-11-14T15:06:56.985Z,10.52
2018-11-14T15:09:24.160Z,10.51
2018-11-14T15:11:51.296Z,10.89
2018-11-14T15:14:18.468Z,10.84
2018-11-14T15:16:45.672Z,10.75
2018-11-14T15:19:12.740Z,10.98
2018-11-14T15:21:39.835Z,11.35
2018-11-14T15:24:07.122Z,11.49
2018-11-14T15:26:34.242Z,11.30
2018-11-14T15:29:01.796Z,11.09
2018-11-14T15:31:28.822Z,10.71
2018-11-14T15:33:56.024Z,10.73
2018-11-14T15:36:23.241Z,10.45
2018-11-14T15:38:50.335Z,10.40
2018-11-14T15:41:17.540Z,10.46
2018-11-14T15:43:44.626Z,10.32
2018-11-14T15:46:11.904Z,10.38
2018-11-14T15:48:39.089Z,10.35
2018-11-14T15:51:06.448Z,10.58
2018-11-14T15:53:33.540Z,10.56
2018-11-14T15:56:00.623Z,10.65
2018-11-14T15:58:27.914Z,10.37
2018-11-14T16:00:55.069Z,10.63
2018-11-14T16:03:22.353Z,10.56
2018-11-14T16:05:49.780Z,10.90
2018-11-14T16:08:16.914Z,10.92
2018-11-14T16:10:44.090Z,10.61
2018-11-14T16:13:11.180Z,10.47
2018-11-14T16:15:38.273Z,10.67
2018-11-14T16:18:05.518Z,11.01
2018-11-14T16:20:32.581Z,10.91
2018-11-14T16:22:59.664Z,10.69
2018-11-14T16:25:27.252Z,10.53
2018-11-14T16:27:55.907Z,10.64
2018-11-14T16:30:25.141Z,10.69
2018-11-14T16:32:53.548Z,10.76
2018-11-14T16:35:20.849Z,10.97
2018-11-14T16:37:48.189Z,11.01
2018-11-14T16:40:18.569Z,10.67
2018-11-14T16:42:45.906Z,10.42
2018-11-14T16:45:13.765Z,10.47
2018-11-14T16:47:41.028Z,10.38
2018-11-14T16:50:10.032Z,10.36
2018-11-14T16:52:37.212Z,10.29
2018-11-14T16:55:05.335Z,10.22
2018-11-14T16:57:32.829Z,10.31
2018-11-14T17:00:00.419Z,10.36
2018-11-14T17:02:27.935Z,10.32
2018-11-14T17:04:55.368Z,10.22
2018-11-14T17:07:22.454Z,10.48
2018-11-14T17:09:49.896Z,10.79
2018-11-14T17:12:16.969Z,10.94
2018-11-14T17:14:44.200Z,10.62
2018-11-14T17:17:11.628Z,10.47
2018-11-14T17:19:38.845Z,10.60
2018-11-14T17:22:06.331Z,10.89
2018-11-14T17:24:33.795Z,10.95
2018-11-14T17:27:00.876Z,11.14
2018-11-14T17:29:27.944Z,11.29
2018-11-14T17:31:55.053Z,11.29
2018-11-14T17:34:22.157Z,11.18
2018-11-14T17:36:49.711Z,11.25
2018-11-14T17:39:16.858Z,11.14
2018-11-14T17:41:44.508Z,11.02
2018-11-14T17:44:11.563Z,10.78
2018-11-14T17:46:39.780Z,10.93
2018-11-14T17:49:07.251Z,11.25
2018-11-14T17:51:34.432Z,11.21
2018-11-14T17:54:01.564Z,11.03
2018-11-14T17:56:29.149Z,10.99
2018-11-14T17:58:56.308Z,10.95
2018-11-14T18:01:23.405Z,10.76
2018-11-14T18:03:50.488Z,11.34
2018-11-14T18:06:17.561Z,11.31
2018-11-14T18:08:44.926Z,11.36
2018-11-14T18:11:12.125Z,11.40
2018-11-14T18:13:39.353Z,11.42
2018-11-14T18:16:06.456Z,11.48
2018-11-14T18:18:33.768Z,11.26
2018-11-14T18:21:00.844Z,11.37
2018-11-14T18:23:28.093Z,11.46
2018-11-14T18:25:55.446Z,12.21
2018-11-14T18:28:22.536Z,12.27
2018-11-14T18:30:49.596Z,12.64
2018-11-14T18:33:16.681Z,12.43
2018-11-14T18:35:43.767Z,12.68
2018-11-14T18:38:10.937Z,11.89
2018-11-14T18:40:38.035Z,11.62
2018-11-14T18:43:12.165Z,12.32
2018-11-14T18:45:40.162Z,12.58
2018-11-14T18:48:07.862Z,12.62
2018-11-14T18:50:35.163Z,12.29
2018-11-14T18:53:02.382Z,12.41
2018-11-14T18:55:30.915Z,12.26
2018-11-14T18:57:58.782Z,11.99
2018-11-14T19:00:30.794Z,11.79
2018-11-14T19:02:58.547Z,12.34
2018-11-14T19:05:25.785Z,12.47
2018-11-14T19:07:52.959Z,12.34
2018-11-14T19:10:22.271Z,12.46
2018-11-14T19:12:50.036Z,12.56
2018-11-14T19:15:21.274Z,12.59
2018-11-14T19:17:48.431Z,12.33
2018-11-14T19:20:17.955Z,11.29
2018-11-14T19:22:45.302Z,11.96
2018-11-14T19:25:15.711Z,12.33
2018-11-14T19:27:43.999Z,12.37
2018-11-14T19:30:13.613Z,11.87
2018-11-14T19:32:41.081Z,12.05
2018-11-14T19:35:09.779Z,11.49
2018-11-14T19:37:37.005Z,11.46
2018-11-14T19:40:05.272Z,11.38
2018-11-14T19:42:32.437Z,11.38
2018-11-14T19:44:59.539Z,11.23
2018-11-14T19:47:26.601Z,10.98
2018-11-14T19:49:54.473Z,10.90
2018-11-14T19:52:21.728Z,10.83
2018-11-14T19:54:48.872Z,10.89
2018-11-14T19:57:16.200Z,10.76
2018-11-14T19:59:43.620Z,10.60
2018-11-14T20:02:10.794Z,10.61
2018-11-14T20:04:38.069Z,10.64
2018-11-14T20:07:05.300Z,10.47
2018-11-14T20:09:32.675Z,10.70
2018-11-14T20:11:59.726Z,10.45
2018-11-14T20:14:27.068Z,10.41
2018-11-14T20:16:54.387Z,10.78
2018-11-14T20:19:21.672Z,10.95
2018-11-14T20:21:48.900Z,10.74
2018-11-14T20:24:16.112Z,10.55
2018-11-14T20:26:43.372Z,10.60
2018-11-14T20:29:10.451Z,10.76
2018-11-14T20:31:38.175Z,10.69
2018-11-14T20:34:05.595Z,10.72
2018-11-14T20:36:32.656Z,10.28
2018-11-14T20:39:00.103Z,10.05
2018-11-14T20:41:27.187Z,9.66
2018-11-14T20:43:54.252Z,9.44
2018-11-14T20:46:28.754Z,9.76
2018-11-14T20:48:55.963Z,9.84
2018-11-14T20:51:23.017Z,10.31
2018-11-14T20:53:50.791Z,9.87
2018-11-14T20:56:18.172Z,9.92
2018-11-14T20:58:45.377Z,10.29
2018-11-14T21:01:12.446Z,10.40
2018-11-14T21:03:39.543Z,10.31
2018-11-14T21:06:06.797Z,10.32
2018-11-14T21:08:33.871Z,10.51
2018-11-14T21:11:01.913Z,10.51
2018-11-14T21:13:29.035Z,10.40
2018-11-14T21:15:56.095Z,10.28
2018-11-14T21:18:23.372Z,9.87
2018-11-14T21:20:50.814Z,10.19
2018-11-14T21:23:18.025Z,10.27
2018-11-14T21:25:45.224Z,10.34
2018-11-14T21:28:12.391Z,10.23
2018-11-14T21:30:48.684Z,10.26
2018-11-14T21:33:16.103Z,10.14
2018-11-14T21:35:43.176Z,10.11
2018-11-14T21:38:10.619Z,9.84
2018-11-14T21:40:37.894Z,9.55
2018-11-14T21:43:05.955Z,9.84
2018-11-14T21:45:33.057Z,9.93
2018-11-14T21:48:06.052Z,9.95
2018-11-14T21:50:33.389Z,9.91
2018-11-14T21:53:00.467Z,10.13
2018-11-14T21:55:27.764Z,9.83
2018-11-14T21:57:54.854Z,9.48
2018-11-14T22:00:39.246Z,9.31
2018-11-14T22:03:07.635Z,9.32
2018-11-14T22:05:35.025Z,9.20
2018-11-14T22:08:02.128Z,9.73
2018-11-14T22:10:29.365Z,10.13
2018-11-14T22:12:56.431Z,9.78
2018-11-14T22:15:24.651Z,9.52
2018-11-14T22:17:51.933Z,9.43
2018-11-14T22:20:20.178Z,9.71
2018-11-14T22:22:47.849Z,9.78
2018-11-14T22:25:17.776Z,9.89
2018-11-14T22:27:48.346Z,10.10
2018-11-14T22:30:23.203Z,9.79
2018-11-14T22:38:12.312Z,10.01
2018-11-14T22:40:39.431Z,9.85
2018-11-14T22:43:06.582Z,10.18
2018-11-14T22:45:33.757Z,9.81
2018-11-14T22:48:00.839Z,9.62
2018-11-14T22:50:27.947Z,9.89
2018-11-14T22:52:55.120Z,9.97
2018-11-14T22:55:23.278Z,10.10
2018-11-14T22:57:51.055Z,9.53
2018-11-14T23:00:27.637Z,9.43
2018-11-14T23:02:56.740Z,9.27
2018-11-14T23:05:23.841Z,9.35
2018-11-14T23:07:52.583Z,9.34
2018-11-14T23:10:20.608Z,9.22
2018-11-14T23:12:48.167Z,9.55
2018-11-14T23:15:16.160Z,9.35
2018-11-14T23:17:43.239Z,9.43
2018-11-14T23:20:14.252Z,9.83
2018-11-14T23:22:42.200Z,9.97
2018-11-14T23:25:09.997Z,9.79
2018-11-14T23:27:37.704Z,9.38
2018-11-14T23:30:06.685Z,9.24
2018-11-14T23:32:33.781Z,9.56
2018-11-14T23:35:06.485Z,9.64
2018-11-14T23:37:33.668Z,9.88
2018-11-14T23:40:00.770Z,9.87
2018-11-14T23:42:27.961Z,10.09
2018-11-14T23:44:55.278Z,9.91
2018-11-14T23:47:22.389Z,9.69
2018-11-14T23:49:49.871Z,9.92
2018-11-14T23:52:16.984Z,10.21
2018-11-14T23:54:44.118Z,9.73
2018-11-14T23:57:11.287Z,9.86
2018-11-14T23:59:38.787Z,9.71
